Terminal Aerodrome Forecast
Issued by NWS

Home | Current Version | Previous Version | Text Only | Print | Product List | Glossary Off
Versions: 1 2 3 4 5 6 7 8 9 10 11 12

000
FTUS43 KTOP 250520
TAFMHK
TAF
KMHK 250520Z 2506/2606 19006KT P6SM SCT250
     FM250700 20006KT P6SM VCTS SCT080CB BKN150
     FM251300 21007KT P6SM FEW045 BKN200=

USA.gov is the U.S. government's official web portal to all federal, state and local government web resources and services.